Time;durP1;ratioP1;P1;durP2;ratioP2;P2;SDS_P1;SDS_P2;PMS_P1;PMS_P2;Temp;Humidity;BMP_temperature;BMP_pressure;BME280_temperature;BME280_humidity;BME280_pressure;Samples;Min_cycle;Max_cycle;Signal;HPM_P1;HPM_P2
2023/07/23 00:01:27;;;;;;;5.70;5.10;;;;;;;15.26;100.00;101006.00;6226593;28;20235;-67
2023/07/23 00:04:48;;;;;;;7.50;5.30;;;;;;;15.27;100.00;100996.00;6229860;28;20240;-67
2023/07/23 00:08:10;;;;;;;6.00;5.40;;;;;;;15.28;100.00;100995.84;6229047;28;20236;-68
2023/07/23 00:11:33;;;;;;;6.20;5.60;;;;;;;15.34;100.00;100997.91;6224000;28;20240;-67
2023/07/23 00:14:54;;;;;;;5.90;4.80;;;;;;;15.39;100.00;100992.84;6231181;28;20232;-68
2023/07/23 00:18:15;;;;;;;5.93;5.40;;;;;;;15.37;100.00;100980.41;6226453;28;20240;-68
2023/07/23 00:21:37;;;;;;;5.67;5.13;;;;;;;15.47;100.00;100971.16;6227712;28;20232;-68
2023/07/23 00:24:58;;;;;;;4.53;4.20;;;;;;;15.57;100.00;100977.28;6206082;28;21175;-68
2023/07/23 00:28:21;;;;;;;5.13;4.67;;;;;;;15.38;100.00;100966.66;6228035;28;20568;-68
2023/07/23 00:31:42;;;;;;;4.93;4.23;;;;;;;15.50;100.00;100962.66;6229925;28;20235;-68
2023/07/23 00:35:04;;;;;;;5.33;4.90;;;;;;;15.51;100.00;100956.22;6259825;28;20231;-68
2023/07/23 00:38:25;;;;;;;7.27;6.33;;;;;;;15.49;100.00;100954.69;6223529;28;20425;-68
2023/07/23 00:41:46;;;;;;;6.90;6.20;;;;;;;15.49;100.00;100946.53;6221499;28;20396;-68
2023/07/23 00:45:09;;;;;;;7.53;5.93;;;;;;;15.39;100.00;100943.06;6224788;28;20239;-68
2023/07/23 00:48:31;;;;;;;6.20;5.60;;;;;;;15.50;100.00;100934.66;6226858;28;20228;-68
2023/07/23 00:51:54;;;;;;;7.83;6.00;;;;;;;15.66;100.00;100940.13;6209414;28;20259;-68
2023/07/23 00:55:15;;;;;;;7.90;6.10;;;;;;;15.49;100.00;100930.22;6251207;28;20236;-68
2023/07/23 00:58:37;;;;;;;6.47;5.83;;;;;;;15.39;100.00;100921.34;6223873;28;20326;-68
2023/07/23 01:01:59;;;;;;;7.40;6.67;;;;;;;15.50;100.00;100927.31;6253859;28;20240;-67
2023/07/23 01:05:22;;;;;;;7.93;7.30;;;;;;;15.13;100.00;100919.56;6239123;28;20608;-67
2023/07/23 01:08:45;;;;;;;6.43;5.83;;;;;;;15.21;100.00;100913.28;6222732;28;20239;-68
2023/07/23 01:12:07;;;;;;;6.33;5.73;;;;;;;15.21;100.00;100905.16;6258873;28;20239;-68
2023/07/23 01:15:29;;;;;;;6.33;5.83;;;;;;;15.33;100.00;100911.13;6233963;28;20227;-67
2023/07/23 01:18:52;;;;;;;7.07;6.37;;;;;;;15.34;100.00;100908.25;6205364;28;20334;-68
2023/07/23 01:22:14;;;;;;;7.63;6.50;;;;;;;15.25;100.00;100903.78;6254239;28;20533;-68
2023/07/23 01:25:36;;;;;;;6.93;6.23;;;;;;;15.41;100.00;100906.56;6228233;28;20621;-67
2023/07/23 01:28:57;;;;;;;6.57;5.97;;;;;;;15.40;100.00;100898.56;6235492;28;20240;-68
2023/07/23 01:32:18;;;;;;;7.10;6.37;;;;;;;15.55;100.00;100900.50;6187821;28;20271;-68
2023/07/23 01:35:39;;;;;;;6.83;6.13;;;;;;;15.52;100.00;100886.44;6211870;28;20318;-68
2023/07/23 01:39:03;;;;;;;8.67;5.83;;;;;;;15.61;100.00;100879.97;6244305;28;20307;-68
2023/07/23 01:42:24;;;;;;;9.60;6.20;;;;;;;15.71;100.00;100884.22;6234706;28;20239;-68
2023/07/23 01:45:46;;;;;;;7.37;6.67;;;;;;;15.57;100.00;100884.03;6224471;28;20232;-68
2023/07/23 01:49:07;;;;;;;7.77;7.07;;;;;;;15.70;100.00;100876.25;6233998;28;20612;-68
2023/07/23 01:52:29;;;;;;;7.00;6.40;;;;;;;15.80;100.00;100871.47;6248253;28;20321;-68
2023/07/23 01:55:51;;;;;;;7.57;6.60;;;;;;;15.77;100.00;100872.66;6253503;28;20243;-67
2023/07/23 01:59:13;;;;;;;7.00;6.30;;;;;;;15.60;100.00;100859.25;6209502;28;20231;-67
2023/07/23 02:02:34;;;;;;;7.90;6.03;;;;;;;15.66;100.00;100862.16;6220681;28;20232;-68
2023/07/23 02:05:56;;;;;;;7.90;7.10;;;;;;;15.65;100.00;100859.56;6223058;28;20242;-67
2023/07/23 02:09:18;;;;;;;8.50;7.67;;;;;;;15.72;100.00;100852.47;6226075;28;20233;-67
2023/07/23 02:12:40;;;;;;;9.97;8.53;;;;;;;15.50;100.00;100851.25;6220208;28;20248;-68
2023/07/23 02:16:02;;;;;;;7.43;6.67;;;;;;;15.50;100.00;100837.66;6234058;28;20235;-68
2023/07/23 02:19:24;;;;;;;6.97;6.37;;;;;;;15.44;100.00;100843.78;6237858;28;20613;-67
2023/07/23 02:22:48;;;;;;;7.27;6.63;;;;;;;15.62;100.00;100840.91;6212884;28;20231;-69
2023/07/23 02:26:10;;;;;;;8.73;7.93;;;;;;;15.53;100.00;100840.06;6259169;28;20262;-68
2023/07/23 02:29:33;;;;;;;10.63;8.00;;;;;;;15.56;100.00;100830.72;6237796;28;20228;-69
2023/07/23 02:32:54;;;;;;;9.47;8.50;;;;;;;15.43;100.00;100830.38;6236345;28;20235;-67
2023/07/23 02:36:16;;;;;;;9.03;7.77;;;;;;;15.55;100.00;100823.56;6228380;28;20688;-68
2023/07/23 02:39:37;;;;;;;7.07;6.37;;;;;;;15.57;100.00;100824.25;6228202;28;20239;-69
2023/07/23 02:42:59;;;;;;;9.40;7.97;;;;;;;15.59;100.00;100822.22;6232267;28;20231;-68
2023/07/23 02:46:21;;;;;;;7.83;6.97;;;;;;;15.52;100.00;100824.75;6236116;28;20238;-68
2023/07/23 02:49:42;;;;;;;8.00;7.37;;;;;;;15.62;100.00;100822.75;6222060;28;20229;-68
2023/07/23 02:53:04;;;;;;;7.70;7.00;;;;;;;15.58;100.00;100809.66;6240638;28;20516;-69
2023/07/23 02:56:25;;;;;;;7.57;6.87;;;;;;;15.61;100.00;100804.72;6205972;28;20247;-67
2023/07/23 02:59:46;;;;;;;8.30;7.53;;;;;;;15.56;100.00;100806.25;6216832;28;20231;-68
2023/07/23 03:03:10;;;;;;;6.60;6.07;;;;;;;15.56;100.00;100796.22;6233013;28;20556;-67
2023/07/23 03:06:31;;;;;;;6.77;6.07;;;;;;;15.56;100.00;100800.81;6230717;28;20310;-67
2023/07/23 03:09:52;;;;;;;7.17;6.47;;;;;;;15.68;100.00;100783.16;6229381;28;20236;-68
2023/07/23 03:13:14;;;;;;;7.70;6.80;;;;;;;15.61;100.00;100785.69;6217873;28;20232;-68
2023/07/23 03:16:35;;;;;;;7.97;7.10;;;;;;;15.54;100.00;100787.38;6201068;28;20335;-68
2023/07/23 03:19:58;;;;;;;8.53;6.33;;;;;;;15.70;100.00;100787.41;6224273;28;20236;-68
2023/07/23 03:23:20;;;;;;;7.27;6.57;;;;;;;15.55;100.00;100777.38;6216292;28;20614;-68
2023/07/23 03:26:41;;;;;;;8.67;7.83;;;;;;;15.41;100.00;100775.31;6210005;28;20242;-68
2023/07/23 03:30:04;;;;;;;7.47;6.87;;;;;;;15.41;100.00;100772.59;6245346;28;20240;-68
2023/07/23 03:33:25;;;;;;;7.50;6.80;;;;;;;15.39;100.00;100767.34;6246699;28;20323;-68
2023/07/23 03:36:47;;;;;;;7.80;7.00;;;;;;;15.35;100.00;100773.28;6213135;28;20801;-67
2023/07/23 03:40:09;;;;;;;7.03;6.37;;;;;;;15.39;100.00;100772.78;6232098;28;20240;-68
2023/07/23 03:43:30;;;;;;;7.60;6.50;;;;;;;15.38;100.00;100764.78;6250422;28;20350;-68
2023/07/23 03:47:04;;;;;;;7.50;6.80;;;;;;;15.33;100.00;100761.72;6201807;28;20592;-68
2023/07/23 03:50:25;;;;;;;9.47;6.93;;;;;;;15.55;100.00;100752.91;6214007;28;20240;-68
2023/07/23 03:53:48;;;;;;;7.40;6.70;;;;;;;15.53;100.00;100755.81;6219401;28;20350;-68
2023/07/23 03:57:09;;;;;;;7.63;6.83;;;;;;;15.63;100.00;100751.03;6199929;28;20239;-69
2023/07/23 04:00:30;;;;;;;6.97;6.33;;;;;;;15.61;100.00;100746.78;6251489;28;20799;-68
2023/07/23 04:03:51;;;;;;;7.67;6.53;;;;;;;15.57;100.00;100743.59;6201355;28;20235;-68
2023/07/23 04:07:12;;;;;;;6.50;5.90;;;;;;;15.49;100.00;100746.31;6245200;28;20609;-67
2023/07/23 04:10:37;;;;;;;7.30;6.60;;;;;;;15.57;100.00;100740.88;6239112;28;20229;-66
2023/07/23 04:13:58;;;;;;;6.67;6.07;;;;;;;15.40;100.00;100747.28;6229098;28;20267;-68
2023/07/23 04:17:19;;;;;;;6.47;5.87;;;;;;;15.52;100.00;100747.84;6209360;28;20232;-68
2023/07/23 04:20:40;;;;;;;7.80;6.93;;;;;;;15.72;100.00;100741.88;6235148;28;20228;-68
2023/07/23 04:24:01;;;;;;;7.13;6.43;;;;;;;15.65;100.00;100748.16;6231583;28;20259;-68
2023/07/23 04:27:24;;;;;;;6.80;6.10;;;;;;;15.50;100.00;100739.84;6230725;28;22798;-67
2023/07/23 04:30:45;;;;;;;8.17;6.40;;;;;;;15.51;100.00;100730.69;6229699;28;20766;-67
2023/07/23 04:34:06;;;;;;;8.00;7.17;;;;;;;15.50;100.00;100733.59;6217724;28;20622;-68
2023/07/23 04:37:28;;;;;;;13.53;6.90;;;;;;;15.56;100.00;100732.91;6240279;28;20243;-68
2023/07/23 04:40:49;;;;;;;6.77;6.10;;;;;;;15.49;100.00;100729.16;6244759;28;20259;-67
2023/07/23 04:44:12;;;;;;;7.00;6.00;;;;;;;15.52;100.00;100724.22;6237896;28;21182;-67
2023/07/23 04:47:33;;;;;;;8.90;5.43;;;;;;;15.61;100.00;100723.19;6254689;28;20231;-68
2023/07/23 04:50:57;;;;;;;6.47;5.87;;;;;;;15.56;100.00;100720.13;6213016;28;20244;-67
2023/07/23 04:54:19;;;;;;;8.23;5.70;;;;;;;15.68;100.00;100716.06;6260400;28;20478;-67
2023/07/23 04:57:40;;;;;;;8.53;6.83;;;;;;;15.56;100.00;100720.13;6243272;28;20805;-67
2023/07/23 05:01:09;;;;;;;6.13;5.53;;;;;;;15.42;100.00;100717.22;6229905;28;20544;-68
2023/07/23 05:04:31;;;;;;;7.23;6.53;;;;;;;15.40;100.00;100705.69;6227069;28;21159;-68
2023/07/23 05:07:52;;;;;;;5.50;5.00;;;;;;;15.50;100.00;100704.53;6234205;28;20309;-67
2023/07/23 05:11:13;;;;;;;7.70;5.77;;;;;;;15.41;100.00;100710.97;6241419;28;20262;-68
2023/07/23 05:14:35;;;;;;;5.87;5.30;;;;;;;15.32;100.00;100708.41;6237515;28;20231;-67
2023/07/23 05:17:58;;;;;;;6.43;5.83;;;;;;;15.58;100.00;100712.66;6230660;28;20902;-68
2023/07/23 05:21:19;;;;;;;6.63;5.87;;;;;;;15.40;100.00;100702.97;6227953;28;20238;-67
2023/07/23 05:24:40;;;;;;;6.90;5.53;;;;;;;15.36;100.00;100702.47;6241642;28;20236;-67
2023/07/23 05:28:01;;;;;;;5.63;5.07;;;;;;;15.48;100.00;100706.56;6250507;28;20647;-67
2023/07/23 05:31:23;;;;;;;9.90;5.90;;;;;;;15.49;100.00;100704.69;6214737;28;20230;-68
2023/07/23 05:34:46;;;;;;;9.07;6.50;;;;;;;15.55;100.00;100706.72;6239638;28;20315;-68
2023/07/23 05:38:07;;;;;;;5.27;4.77;;;;;;;15.42;100.00;100701.78;6242194;28;20235;-68
2023/07/23 05:41:29;;;;;;;6.67;4.83;;;;;;;15.51;100.00;100698.06;6255798;28;20234;-67
2023/07/23 05:44:50;;;;;;;5.50;4.60;;;;;;;15.43;100.00;100702.66;6250113;28;20232;-67
2023/07/23 05:48:11;;;;;;;5.33;4.83;;;;;;;15.46;100.00;100697.72;6250387;28;20251;-67
2023/07/23 05:51:34;;;;;;;5.87;5.27;;;;;;;15.50;100.00;100700.97;6233500;28;20679;-67
2023/07/23 05:54:56;;;;;;;7.87;4.20;;;;;;;15.52;100.00;100696.22;6240037;28;20243;-68
2023/07/23 05:58:17;;;;;;;4.93;4.53;;;;;;;15.55;100.00;100699.44;6249986;28;20231;-67
2023/07/23 06:01:38;;;;;;;7.43;4.60;;;;;;;15.63;100.00;100696.69;6234046;28;20314;-67
2023/07/23 06:04:59;;;;;;;4.30;3.90;;;;;;;15.48;100.00;100687.53;6246822;28;20232;-68
2023/07/23 06:08:22;;;;;;;5.60;3.87;;;;;;;15.49;100.00;100685.69;6212964;28;20227;-68
2023/07/23 06:11:43;;;;;;;6.17;4.93;;;;;;;15.52;100.00;100683.44;6226890;28;20678;-66
2023/07/23 06:15:05;;;;;;;5.03;4.63;;;;;;;15.77;100.00;100687.81;6241528;28;20244;-66
2023/07/23 06:18:26;;;;;;;3.90;3.50;;;;;;;15.87;100.00;100679.47;6201789;28;20228;-67
2023/07/23 06:21:48;;;;;;;6.67;5.67;;;;;;;15.89;100.00;100688.31;6218483;28;20770;-68
2023/07/23 06:25:10;;;;;;;4.07;3.77;;;;;;;15.95;100.00;100688.47;6227888;28;20240;-67
2023/07/23 06:28:32;;;;;;;4.77;4.37;;;;;;;16.07;100.00;100683.47;6224099;28;20239;-66
2023/07/23 06:31:53;;;;;;;5.13;4.63;;;;;;;16.21;100.00;100677.28;6220516;28;20227;-67
2023/07/23 06:35:15;;;;;;;6.43;5.50;;;;;;;15.91;100.00;100676.25;6229475;28;20263;-67
2023/07/23 06:38:36;;;;;;;5.63;4.57;;;;;;;15.83;100.00;100676.25;6205786;28;20232;-67
2023/07/23 06:41:59;;;;;;;5.10;4.50;;;;;;;15.96;100.00;100670.25;6264202;28;20531;-67
2023/07/23 06:45:21;;;;;;;4.67;4.17;;;;;;;16.12;100.00;100661.19;6233419;28;20247;-68
2023/07/23 06:48:43;;;;;;;5.40;4.93;;;;;;;16.14;100.00;100659.13;6243712;28;20251;-67
2023/07/23 06:52:05;;;;;;;7.40;5.30;;;;;;;16.02;100.00;100658.66;6219262;28;20536;-67
2023/07/23 06:55:26;;;;;;;4.90;4.23;;;;;;;16.05;100.00;100655.59;6217518;28;20241;-67
2023/07/23 06:58:49;;;;;;;6.73;4.80;;;;;;;16.05;100.00;100654.75;6243187;28;20252;-66
2023/07/23 07:02:10;;;;;;;16.73;4.33;;;;;;;16.13;100.00;100643.81;6236544;28;20227;-67
2023/07/23 07:05:31;;;;;;;4.60;4.20;;;;;;;16.35;100.00;100635.75;6238542;28;20606;-66
2023/07/23 07:08:52;;;;;;;4.67;4.27;;;;;;;16.39;100.00;100642.53;6218092;28;20235;-67
2023/07/23 07:12:14;;;;;;;5.40;4.40;;;;;;;16.30;100.00;100637.28;6242903;28;20235;-67
2023/07/23 07:15:36;;;;;;;5.87;5.23;;;;;;;16.27;100.00;100630.31;6229439;28;20240;-67
2023/07/23 07:18:58;;;;;;;6.57;5.27;;;;;;;16.59;100.00;100624.72;6261490;28;20242;-68
2023/07/23 07:22:19;;;;;;;6.27;4.80;;;;;;;16.49;100.00;100624.09;6252065;28;20235;-68
2023/07/23 07:25:40;;;;;;;6.27;5.67;;;;;;;16.59;100.00;100627.44;6222699;28;20256;-67
2023/07/23 07:29:02;;;;;;;7.10;4.80;;;;;;;16.76;100.00;100622.72;6228418;28;20236;-67
2023/07/23 07:32:25;;;;;;;5.67;4.40;;;;;;;16.55;100.00;100622.53;6242175;28;21054;-67
2023/07/23 07:35:46;;;;;;;6.40;4.93;;;;;;;16.61;100.00;100619.94;6227184;28;20235;-67
2023/07/23 07:39:07;;;;;;;5.30;3.77;;;;;;;16.49;100.00;100615.06;6228290;28;20319;-68
2023/07/23 07:42:29;;;;;;;5.53;5.03;;;;;;;16.73;100.00;100606.72;6238281;28;20239;-67
2023/07/23 07:45:52;;;;;;;5.80;5.03;;;;;;;16.75;100.00;100605.53;6221856;28;20251;-67
2023/07/23 07:49:15;;;;;;;5.47;4.97;;;;;;;16.92;100.00;100610.84;6227936;28;20233;-67
2023/07/23 07:52:37;;;;;;;12.40;6.37;;;;;;;16.93;100.00;100605.22;6244126;28;21275;-67
2023/07/23 07:55:59;;;;;;;6.97;5.07;;;;;;;16.90;100.00;100599.31;6208954;28;20809;-67
2023/07/23 07:59:21;;;;;;;5.83;4.87;;;;;;;16.92;100.00;100600.78;6215263;28;20684;-67
2023/07/23 08:02:42;;;;;;;6.17;4.77;;;;;;;16.53;100.00;100600.09;6252474;28;20333;-67
2023/07/23 08:06:05;;;;;;;5.87;5.27;;;;;;;16.89;100.00;100590.28;6223788;28;20240;-67
2023/07/23 08:09:28;;;;;;;6.70;6.03;;;;;;;17.20;100.00;100590.16;6252878;28;20232;-67
2023/07/23 08:12:50;;;;;;;5.32;4.72;;;;;;;17.26;100.00;100589.41;6229524;28;20302;-67
2023/07/23 08:16:13;;;;;;;6.00;5.23;;;;;;;17.52;100.00;100587.13;6222895;28;21531;-67
2023/07/23 08:19:35;;;;;;;3.87;3.53;;;;;;;17.62;100.00;100584.09;6245295;28;20231;-68
2023/07/23 08:22:58;;;;;;;5.80;5.17;;;;;;;17.40;100.00;100577.66;6259743;28;20317;-68
2023/07/23 08:26:21;;;;;;;7.70;5.27;;;;;;;17.84;100.00;100580.41;6229144;28;20239;-68
2023/07/23 08:29:46;;;;;;;4.97;4.18;;;;;;;18.20;100.00;100584.00;6229626;28;20228;-67
2023/07/23 08:33:07;;;;;;;5.10;4.60;;;;;;;17.79;100.00;100574.69;6222959;28;20536;-67
2023/07/23 08:36:29;;;;;;;6.47;5.85;;;;;;;17.82;100.00;100579.75;6233500;28;20562;-67
2023/07/23 08:39:54;;;;;;;5.47;4.68;;;;;;;17.79;100.00;100574.69;6243594;28;20498;-67
2023/07/23 08:43:49;;;;;;;5.07;4.50;;;;;;;17.75;100.00;100576.09;6223893;28;20257;-66
2023/07/23 08:47:12;;;;;;;6.35;5.18;;;;;;;17.74;100.00;100566.22;6197933;28;20344;-67
2023/07/23 08:50:35;;;;;;;5.10;4.60;;;;;;;18.11;100.00;100568.78;6230448;28;20949;-67
2023/07/23 08:53:58;;;;;;;6.07;5.57;;;;;;;17.83;100.00;100568.66;6195542;28;20651;-66
2023/07/23 08:57:21;;;;;;;5.78;5.22;;;;;;;17.94;100.00;100565.41;6202967;28;20597;-66
2023/07/23 09:00:43;;;;;;;5.50;4.72;;;;;;;17.77;100.00;100563.97;6193240;28;20240;-67
2023/07/23 09:04:06;;;;;;;6.10;5.35;;;;;;;17.87;100.00;100561.78;6191027;28;20658;-68
2023/07/23 09:07:27;;;;;;;5.50;5.00;;;;;;;17.77;100.00;100555.78;6193996;28;20509;-66
2023/07/23 09:10:48;;;;;;;18.65;16.80;;;;;;;18.17;100.00;100549.75;6172760;28;20259;-66
2023/07/23 09:14:12;;;;;;;16.88;15.10;;;;;;;18.32;100.00;100545.09;6224126;28;20489;-70
2023/07/23 09:17:34;;;;;;;54.42;49.28;;;;;;;18.35;100.00;100547.44;6232435;28;20310;-72
2023/07/23 09:20:56;;;;;;;26.15;23.52;;;;;;;18.64;100.00;100553.81;6217380;28;20240;-67
2023/07/23 09:24:20;;;;;;;238.70;216.77;;;;;;;18.95;100.00;100555.16;6223303;28;20303;-69
2023/07/23 09:27:43;;;;;;;62.15;56.65;;;;;;;18.92;99.37;100550.06;6213789;28;20251;-69
2023/07/23 09:31:06;;;;;;;31.33;28.80;;;;;;;18.29;99.26;100550.09;6215584;28;20247;-67
2023/07/23 09:34:27;;;;;;;51.50;47.10;;;;;;;18.26;99.52;100554.06;6235710;28;20758;-67
2023/07/23 09:37:55;;;;;;;14.80;13.35;;;;;;;18.45;99.12;100562.66;6234144;28;20318;-67
2023/07/23 09:41:16;;;;;;;4.75;4.35;;;;;;;18.23;99.75;100556.34;6234589;28;20222;-68
2023/07/23 09:44:39;;;;;;;6.28;5.75;;;;;;;18.45;99.88;100554.47;6255732;28;20529;-67
2023/07/23 09:48:04;;;;;;;6.53;5.15;;;;;;;18.37;99.48;100547.25;6226821;28;20243;-67
2023/07/23 09:51:25;;;;;;;5.65;5.15;;;;;;;18.70;99.37;100537.50;6236639;28;20231;-67
2023/07/23 09:54:47;;;;;;;6.18;5.57;;;;;;;18.29;99.50;100550.91;6257308;28;20236;-68
2023/07/23 09:58:10;;;;;;;5.55;5.05;;;;;;;18.09;100.00;100551.75;6221422;28;20698;-66
2023/07/23 10:01:32;;;;;;;5.50;5.00;;;;;;;17.93;100.00;100558.28;6220316;28;20539;-67
2023/07/23 10:04:58;;;;;;;8.85;5.18;;;;;;;17.99;100.00;100556.66;6233277;28;20229;-68
2023/07/23 10:08:23;;;;;;;5.63;5.13;;;;;;;18.15;100.00;100554.56;6211291;28;20247;-67
2023/07/23 10:11:44;;;;;;;6.63;5.90;;;;;;;18.24;100.00;100552.56;6189572;28;20231;-67
2023/07/23 10:15:06;;;;;;;6.72;6.10;;;;;;;18.58;100.00;100540.97;6219928;28;20258;-67
2023/07/23 10:18:29;;;;;;;7.65;5.80;;;;;;;18.90;100.00;100533.03;6225551;28;20239;-68
2023/07/23 10:21:51;;;;;;;7.95;6.25;;;;;;;18.90;100.00;100533.03;6213365;28;20231;-68
2023/07/23 10:25:30;;;;;;;5.25;4.85;;;;;;;19.08;100.00;100527.94;6227233;28;20231;-67
2023/07/23 10:28:57;;;;;;;8.73;6.63;;;;;;;19.28;100.00;100530.78;6243989;28;20617;-68
2023/07/23 10:32:26;;;;;;;5.78;5.28;;;;;;;19.47;100.00;100531.97;6245205;28;20222;-67
2023/07/23 10:35:59;;;;;;;7.50;6.10;;;;;;;19.20;99.63;100532.84;6231723;28;20262;-67
2023/07/23 10:39:22;;;;;;;7.25;5.97;;;;;;;19.05;99.63;100532.94;6217786;28;20625;-68
2023/07/23 10:42:43;;;;;;;5.70;5.20;;;;;;;19.09;99.14;100534.22;6234172;28;20734;-67
2023/07/23 10:46:06;;;;;;;9.75;5.88;;;;;;;19.27;98.20;100522.78;6244304;28;20323;-67
2023/07/23 10:49:29;;;;;;;6.07;5.47;;;;;;;19.54;97.52;100535.59;6224527;28;20494;-66
2023/07/23 10:52:52;;;;;;;11.02;5.68;;;;;;;19.46;96.61;100522.09;6225116;28;20564;-66
2023/07/23 10:56:32;;;;;;;6.40;5.72;;;;;;;19.14;96.32;100520.81;6213199;28;20252;-67
2023/07/23 10:59:54;;;;;;;5.95;5.28;;;;;;;19.51;96.65;100520.44;6226161;28;20320;-67
2023/07/23 11:03:18;;;;;;;6.05;5.43;;;;;;;19.01;97.22;100532.50;6200035;28;20236;-67
2023/07/23 11:06:41;;;;;;;6.70;6.07;;;;;;;19.52;96.71;100526.75;6224973;28;20248;-66
2023/07/23 11:10:19;;;;;;;7.00;5.75;;;;;;;19.08;96.89;100522.47;6233869;28;20236;-67
2023/07/23 11:13:42;;;;;;;7.75;6.95;;;;;;;18.97;97.81;100523.03;6228517;28;20361;-66
2023/07/23 11:17:05;;;;;;;5.97;5.30;;;;;;;18.60;98.57;100528.81;6227139;28;20251;-66
2023/07/23 11:20:26;;;;;;;5.78;5.25;;;;;;;18.59;99.44;100513.44;6262207;28;20232;-66
2023/07/23 11:23:48;;;;;;;7.00;5.18;;;;;;;18.59;100.00;100520.78;6231044;28;20232;-67
2023/07/23 11:27:10;;;;;;;9.68;5.57;;;;;;;18.63;100.00;100528.41;6226719;28;20231;-66
2023/07/23 11:30:35;;;;;;;6.32;5.72;;;;;;;18.49;100.00;100542.97;6231564;28;20233;-66
2023/07/23 11:34:01;;;;;;;4.85;4.22;;;;;;;18.39;100.00;100536.97;6230488;28;20241;-67
2023/07/23 11:37:23;;;;;;;7.90;5.47;;;;;;;18.06;100.00;100527.59;6216651;28;20242;-66
2023/07/23 11:40:52;;;;;;;5.82;5.28;;;;;;;18.39;100.00;100531.50;6224581;28;21015;-66
2023/07/23 11:44:13;;;;;;;5.90;4.35;;;;;;;18.41;100.00;100539.50;6218532;28;20231;-66
2023/07/23 11:47:48;;;;;;;7.20;4.40;;;;;;;18.49;100.00;100525.75;6203196;28;20252;-67
2023/07/23 11:51:09;;;;;;;8.65;5.95;;;;;;;18.27;100.00;100536.63;6190331;28;21031;-67
2023/07/23 11:54:30;;;;;;;7.93;6.07;;;;;;;17.97;100.00;100545.09;6188353;28;20523;-67
2023/07/23 11:57:53;;;;;;;6.20;5.65;;;;;;;18.01;100.00;100544.53;6213934;28;20328;-68
2023/07/23 12:01:14;;;;;;;5.35;4.85;;;;;;;17.76;100.00;100555.97;6221483;28;20297;-68
2023/07/23 12:04:39;;;;;;;6.60;5.68;;;;;;;17.58;100.00;100547.34;6239381;28;20262;-67
2023/07/23 12:08:02;;;;;;;7.63;6.93;;;;;;;17.66;100.00;100544.50;6251938;28;20238;-67
2023/07/23 12:11:25;;;;;;;6.20;5.60;;;;;;;17.75;100.00;100543.38;6230176;28;20601;-68
2023/07/23 12:15:00;;;;;;;6.57;5.43;;;;;;;17.66;100.00;100548.09;6245896;28;20330;-67
2023/07/23 12:18:23;;;;;;;6.53;5.93;;;;;;;17.50;100.00;100554.56;6215078;28;20244;-68
2023/07/23 12:21:47;;;;;;;4.63;3.85;;;;;;;17.52;100.00;100557.13;6238540;28;20318;-67
2023/07/23 12:25:09;;;;;;;4.82;4.40;;;;;;;17.28;100.00;100547.31;6233543;28;20262;-67
2023/07/23 12:28:30;;;;;;;6.90;4.35;;;;;;;17.31;100.00;100555.09;6236021;28;20240;-67
2023/07/23 12:32:08;;;;;;;4.30;3.65;;;;;;;17.16;100.00;100548.81;6216484;28;20758;-67
2023/07/23 12:35:30;;;;;;;3.63;3.33;;;;;;;17.29;100.00;100550.91;6227466;28;20630;-67
2023/07/23 12:38:52;;;;;;;5.13;4.47;;;;;;;17.58;100.00;100550.06;6200474;28;20232;-67
2023/07/23 12:42:14;;;;;;;3.10;2.85;;;;;;;17.43;100.00;100550.03;6181721;28;20803;-67
2023/07/23 12:45:37;;;;;;;6.05;3.85;;;;;;;17.65;100.00;100548.28;6194064;28;20708;-67
2023/07/23 12:48:58;;;;;;;5.15;4.70;;;;;;;17.75;100.00;100546.97;6219251;28;21060;-67
2023/07/23 12:52:21;;;;;;;4.32;3.55;;;;;;;17.88;100.00;100541.66;6208501;28;20231;-67
2023/07/23 12:55:43;;;;;;;4.13;3.83;;;;;;;17.64;100.00;100554.75;6217465;28;21758;-68
2023/07/23 12:59:05;;;;;;;5.82;4.18;;;;;;;17.61;100.00;100546.97;6213655;28;20232;-67
2023/07/23 13:02:26;;;;;;;4.72;4.10;;;;;;;17.94;100.00;100529.16;6214566;28;20321;-67
2023/07/23 13:05:48;;;;;;;4.45;3.80;;;;;;;18.12;100.00;100538.59;6216314;28;20236;-67
2023/07/23 13:09:10;;;;;;;4.10;3.80;;;;;;;18.02;100.00;100535.31;6259766;28;20231;-67
2023/07/23 13:12:32;;;;;;;4.20;3.72;;;;;;;17.94;100.00;100540.06;6237181;28;20230;-66
2023/07/23 13:15:54;;;;;;;7.45;4.50;;;;;;;17.60;100.00;100537.94;6226955;28;20240;-68
2023/07/23 13:19:15;;;;;;;13.35;4.70;;;;;;;17.69;100.00;100525.06;6228885;28;20232;-67
2023/07/23 13:22:37;;;;;;;5.43;4.85;;;;;;;17.76;100.00;100535.00;6233883;28;20240;-68
2023/07/23 13:25:59;;;;;;;3.92;3.63;;;;;;;17.81;100.00;100531.69;6221920;28;20243;-68
2023/07/23 13:29:22;;;;;;;4.25;3.85;;;;;;;17.96;100.00;100538.81;6248655;28;20856;-68
2023/07/23 13:32:43;;;;;;;5.57;4.45;;;;;;;17.90;100.00;100530.56;6256112;28;20234;-68
2023/07/23 13:36:05;;;;;;;4.47;4.07;;;;;;;18.07;100.00;100532.00;6208384;28;20370;-68
2023/07/23 13:39:27;;;;;;;3.80;3.50;;;;;;;18.03;100.00;100542.47;6246964;28;20254;-68
2023/07/23 13:42:48;;;;;;;7.40;4.40;;;;;;;18.10;100.00;100532.47;6232407;28;20231;-68
2023/07/23 13:46:10;;;;;;;4.88;3.95;;;;;;;18.30;100.00;100532.66;6201226;28;20280;-68
2023/07/23 13:49:31;;;;;;;4.20;3.88;;;;;;;18.43;100.00;100534.69;6204628;28;20233;-68
2023/07/23 13:52:53;;;;;;;4.15;3.75;;;;;;;18.36;100.00;100543.66;6194962;28;20821;-69
2023/07/23 13:56:14;;;;;;;5.63;4.47;;;;;;;18.38;100.00;100532.53;6173317;28;20728;-68
2023/07/23 13:59:36;;;;;;;3.38;3.13;;;;;;;18.51;100.00;100520.94;6209024;28;20612;-68
2023/07/23 14:02:59;;;;;;;5.68;4.13;;;;;;;18.63;100.00;100530.31;6198328;28;20227;-68
2023/07/23 14:06:21;;;;;;;3.75;3.40;;;;;;;18.38;99.62;100536.13;6224889;28;20517;-68
2023/07/23 14:09:43;;;;;;;3.58;3.28;;;;;;;18.48;100.00;100524.94;6240349;28;20236;-69
2023/07/23 14:13:05;;;;;;;4.18;3.78;;;;;;;18.45;99.82;100522.56;6249228;28;20235;-67
2023/07/23 14:16:26;;;;;;;4.10;3.50;;;;;;;18.37;99.88;100528.13;6253878;28;20236;-67
2023/07/23 14:19:49;;;;;;;4.78;3.03;;;;;;;18.61;99.69;100521.47;6242433;28;20228;-68
2023/07/23 14:23:11;;;;;;;2.75;2.55;;;;;;;18.86;98.74;100526.28;6252002;28;20239;-68
2023/07/23 14:26:32;;;;;;;3.72;3.47;;;;;;;18.80;99.14;100510.69;6240058;28;20226;-67
2023/07/23 14:29:53;;;;;;;6.30;3.20;;;;;;;18.87;97.95;100519.78;6258943;28;20594;-67
2023/07/23 14:33:16;;;;;;;3.35;3.05;;;;;;;18.70;97.80;100523.00;6238099;28;20236;-67
2023/07/23 14:36:42;;;;;;;3.47;2.58;;;;;;;18.66;97.65;100511.63;6255335;28;20330;-68
2023/07/23 14:40:04;;;;;;;5.00;3.55;;;;;;;18.57;97.59;100521.00;6243344;28;20340;-67
2023/07/23 14:43:30;;;;;;;3.00;2.70;;;;;;;18.48;97.82;100514.00;6232230;28;20554;-68
2023/07/23 14:46:51;;;;;;;4.25;3.55;;;;;;;18.55;98.28;100511.31;6237274;28;20222;-68
2023/07/23 14:50:12;;;;;;;4.13;2.60;;;;;;;18.51;97.88;100516.31;6263326;28;20337;-68
2023/07/23 14:53:40;;;;;;;3.45;3.15;;;;;;;18.63;97.79;100512.03;6283446;28;20631;-68
2023/07/23 14:57:02;;;;;;;4.47;3.10;;;;;;;18.60;97.69;100509.69;6253423;28;20238;-68
2023/07/23 15:00:24;;;;;;;2.42;2.22;;;;;;;18.59;97.29;100507.13;6253711;28;20247;-67
2023/07/23 15:03:54;;;;;;;3.45;3.15;;;;;;;18.60;96.95;100508.84;6250379;28;20243;-67
2023/07/23 15:07:26;;;;;;;2.45;2.25;;;;;;;18.66;96.84;100508.91;6257771;28;20239;-67
2023/07/23 15:10:50;;;;;;;2.90;2.70;;;;;;;18.71;96.66;100506.41;6231866;28;20235;-68
2023/07/23 15:14:12;;;;;;;2.72;2.53;;;;;;;18.66;96.40;100506.19;6268542;28;20237;-68
2023/07/23 15:17:39;;;;;;;2.95;2.65;;;;;;;18.68;96.08;100509.56;6254498;28;20357;-67
2023/07/23 15:21:04;;;;;;;4.18;2.90;;;;;;;18.58;95.81;100505.47;6221278;28;20255;-68
2023/07/23 15:24:28;;;;;;;3.22;2.78;;;;;;;18.65;95.69;100512.66;6234285;28;20236;-67
2023/07/23 15:27:52;;;;;;;3.22;2.55;;;;;;;18.59;95.81;100507.13;6255122;28;20231;-68
2023/07/23 15:31:13;;;;;;;1.80;1.70;;;;;;;18.54;95.96;100506.91;6233383;28;20232;-68